createdAt,value
2019-06-10T00:00:01.929Z,15.3
2019-06-10T00:05:03.775Z,15.27
2019-06-10T00:10:03.800Z,15.22
2019-06-10T00:15:03.344Z,15.21
2019-06-10T00:20:03.348Z,15.17
2019-06-10T00:25:03.843Z,15.15
2019-06-10T00:30:03.365Z,15.18
2019-06-10T00:35:04.635Z,15.15
2019-06-10T00:40:02.581Z,15.18
2019-06-10T00:45:05.333Z,15.12
2019-06-10T00:50:03.902Z,15.06
2019-06-10T00:55:03.288Z,14.97
2019-06-10T01:00:12.069Z,14.89
2019-06-10T01:05:01.394Z,14.8
2019-06-10T01:10:02.838Z,14.71
2019-06-10T01:15:03.247Z,14.63
2019-06-10T01:20:01.753Z,14.56
2019-06-10T01:25:01.924Z,14.49
2019-06-10T01:30:03.094Z,14.39
2019-06-10T01:35:01.737Z,14.33
2019-06-10T01:40:01.876Z,14.3
2019-06-10T01:45:02.009Z,14.25
2019-06-10T01:50:01.112Z,14.2
2019-06-10T01:55:01.668Z,14.14
2019-06-10T02:00:08.964Z,14.11
2019-06-10T02:05:01.556Z,14.06
2019-06-10T02:10:02.083Z,14.05
2019-06-10T02:15:01.404Z,13.99
2019-06-10T02:20:01.514Z,13.98
2019-06-10T02:25:01.645Z,13.98
2019-06-10T02:30:13.191Z,14
2019-06-10T02:35:08.933Z,13.99
2019-06-10T02:40:04.441Z,14.05
2019-06-10T02:45:03.844Z,14.07
2019-06-10T02:50:04.578Z,14.11
2019-06-10T02:55:04.287Z,14.12
2019-06-10T03:00:06.462Z,14.14
2019-06-10T03:05:04.603Z,14.11
2019-06-10T03:10:04.777Z,14.2
2019-06-10T03:15:02.113Z,14.19
2019-06-10T03:20:02.332Z,14.2
2019-06-10T03:25:02.898Z,14.33
2019-06-10T03:30:03.104Z,14.35
2019-06-10T03:35:05.049Z,14.38
2019-06-10T03:40:02.533Z,14.33
2019-06-10T03:45:03.378Z,14.33
2019-06-10T03:50:03.241Z,14.27
2019-06-10T03:55:03.010Z,14.26
2019-06-10T04:00:02.248Z,14.2
2019-06-10T04:05:02.765Z,14.18
2019-06-10T04:10:02.405Z,14.12
2019-06-10T04:15:03.034Z,14.18
2019-06-10T04:20:09.447Z,14.2
2019-06-10T04:25:03.034Z,14.32
2019-06-10T04:30:03.300Z,14.44
2019-06-10T04:35:02.254Z,14.45
2019-06-10T04:40:02.944Z,14.52
2019-06-10T04:45:03.106Z,14.63
2019-06-10T04:50:03.199Z,14.68
2019-06-10T04:55:02.587Z,14.78
2019-06-10T05:00:04.152Z,14.94
2019-06-10T05:05:02.931Z,15.11
2019-06-10T05:10:03.258Z,15.26
2019-06-10T05:15:03.513Z,15.41
2019-06-10T05:20:02.489Z,15.53
2019-06-10T05:25:02.498Z,15.51
2019-06-10T05:30:02.483Z,15.63
2019-06-10T05:35:03.525Z,15.77
2019-06-10T05:40:02.315Z,15.92
2019-06-10T05:45:03.139Z,16.01
2019-06-10T05:50:03.206Z,16.19
2019-06-10T05:55:02.868Z,16.54
2019-06-10T06:00:07.157Z,17.08
2019-06-10T06:05:02.626Z,17.28
2019-06-10T06:10:02.514Z,17.34
2019-06-10T06:15:02.324Z,17.5
2019-06-10T06:20:02.761Z,17.34
2019-06-10T06:25:03.719Z,17.24
2019-06-10T06:30:07.001Z,17.26
2019-06-10T06:35:02.249Z,17.19
2019-06-10T06:40:02.777Z,17.28
2019-06-10T06:45:03.019Z,17.32
2019-06-10T06:50:02.701Z,17.36
2019-06-10T06:55:02.589Z,17.56
2019-06-10T07:00:22.825Z,17.58
2019-06-10T07:05:03.194Z,17.68
2019-06-10T07:10:03.354Z,17.64
2019-06-10T07:15:04.157Z,17.67
2019-06-10T07:20:03.293Z,17.88
2019-06-10T07:25:06.370Z,18.07
2019-06-10T07:30:11.311Z,18.42
2019-06-10T07:35:02.953Z,18.49
2019-06-10T07:40:03.093Z,18.5
2019-06-10T07:45:02.531Z,18.48
2019-06-10T07:50:02.992Z,18.52
2019-06-10T07:55:02.479Z,18.44
2019-06-10T08:00:03.156Z,18.64
2019-06-10T08:05:03.732Z,18.88
2019-06-10T08:10:02.865Z,19.54
2019-06-10T08:15:02.789Z,20
2019-06-10T08:20:02.644Z,20.14
2019-06-10T08:25:04.958Z,21.24
2019-06-10T08:30:15.650Z,21.32
2019-06-10T08:35:02.794Z,21.48
2019-06-10T08:40:03.819Z,21.55
2019-06-10T08:45:03.441Z,21.54
2019-06-10T08:50:02.669Z,21.87
2019-06-10T08:55:03.403Z,22.23
2019-06-10T09:00:07.045Z,22.41
2019-06-10T09:05:03.712Z,22.32
2019-06-10T09:10:02.977Z,22.68
2019-06-10T09:15:03.723Z,22.81
2019-06-10T09:20:02.958Z,21.92
2019-06-10T09:25:02.984Z,21.68
2019-06-10T09:30:02.996Z,22.41
2019-06-10T09:35:03.473Z,22.06
2019-06-10T09:40:03.365Z,22.34
2019-06-10T09:45:02.605Z,22.31
2019-06-10T09:50:03.245Z,22.23
2019-06-10T09:55:02.792Z,22.49
2019-06-10T10:00:03.405Z,22.35
2019-06-10T10:05:01.562Z,22.26
2019-06-10T10:10:05.062Z,23.08
2019-06-10T10:15:22.254Z,23.21
2019-06-10T10:20:03.195Z,22.83
2019-06-10T10:25:03.032Z,23
2019-06-10T10:30:03.359Z,22.62
2019-06-10T10:35:03.053Z,22.58
2019-06-10T10:40:03.251Z,23.17
2019-06-10T10:45:02.777Z,23
2019-06-10T10:50:02.843Z,22.71
2019-06-10T10:55:06.446Z,22.65
2019-06-10T11:00:03.160Z,22.58
2019-06-10T11:05:01.452Z,22.7
2019-06-10T11:10:03.932Z,22.88
2019-06-10T11:15:04.925Z,23.26
2019-06-10T11:20:03.690Z,23.38
2019-06-10T11:25:01.960Z,23.07
2019-06-10T11:30:02.508Z,22.94
2019-06-10T11:35:02.933Z,22.75
2019-06-10T11:40:02.868Z,22.62
2019-06-10T11:45:02.918Z,22.6
2019-06-10T11:50:03.474Z,22.5
2019-06-10T11:55:11.686Z,22.39
2019-06-10T12:00:13.195Z,22.34
2019-06-10T12:05:04.054Z,22.68
2019-06-10T12:10:01.504Z,22.98
2019-06-10T12:15:01.733Z,23.01
2019-06-10T12:20:03.229Z,22.91
2019-06-10T12:25:26.866Z,23
2019-06-10T12:30:04.843Z,23.11
2019-06-10T12:35:05.022Z,23.18
2019-06-10T12:40:05.570Z,23.16
2019-06-10T12:45:05.953Z,23.28
2019-06-10T12:50:04.074Z,23.02
2019-06-10T12:55:02.410Z,22.75
2019-06-10T13:00:14.398Z,22.78
2019-06-10T13:05:04.758Z,23
2019-06-10T13:10:02.622Z,23.02
2019-06-10T13:15:04.752Z,23.01
2019-06-10T13:20:05.933Z,22.96
2019-06-10T13:25:02.744Z,22.65
2019-06-10T13:30:02.702Z,22.68
2019-06-10T13:35:03.662Z,22.8
2019-06-10T13:40:05.458Z,22.94
2019-06-10T13:45:04.861Z,22.97
2019-06-10T13:50:06.236Z,23.21
2019-06-10T13:55:03.461Z,23.03
2019-06-10T14:00:04.267Z,23.01
2019-06-10T14:05:06.752Z,23.11
2019-06-10T14:10:07.256Z,23.01
2019-06-10T14:15:04.114Z,22.68
2019-06-10T14:20:01.781Z,22.86
2019-06-10T14:25:03.375Z,22.84
2019-06-10T14:30:02.812Z,22.69
2019-06-10T14:35:01.695Z,22.8
2019-06-10T14:40:03.936Z,22.77
2019-06-10T14:45:01.517Z,22.77
2019-06-10T14:50:03.290Z,22.67
2019-06-10T14:55:02.638Z,22.64
2019-06-10T15:00:03.029Z,22.58
2019-06-10T15:05:02.773Z,22.64
2019-06-10T15:10:03.467Z,22.68
2019-06-10T15:15:01.672Z,22.62
2019-06-10T15:20:03.719Z,22.55
2019-06-10T15:25:03.187Z,22.58
2019-06-10T15:30:11.382Z,22.76
2019-06-10T15:35:03.355Z,22.95
2019-06-10T15:40:03.649Z,22.97
2019-06-10T15:45:02.522Z,22.86
2019-06-10T15:50:03.132Z,22.85
2019-06-10T15:55:04.144Z,23
2019-06-10T16:00:04.194Z,22.96
2019-06-10T16:05:02.046Z,22.81
2019-06-10T16:10:02.909Z,22.87
2019-06-10T16:15:02.675Z,22.76
2019-06-10T16:20:03.818Z,22.54
2019-06-10T16:25:03.443Z,22.48
2019-06-10T16:30:02.758Z,22.34
2019-06-10T16:35:04.019Z,22.28
2019-06-10T16:40:03.328Z,22.33
2019-06-10T16:45:02.532Z,22.32
2019-06-10T16:50:03.286Z,22.24
2019-06-10T16:55:02.280Z,22.28
2019-06-10T17:00:06.976Z,22.35
2019-06-10T17:05:03.177Z,22.28
2019-06-10T17:10:02.355Z,22.23
2019-06-10T17:15:03.456Z,22.1
2019-06-10T17:20:03.777Z,22.01
2019-06-10T17:25:02.113Z,21.88
2019-06-10T17:30:02.846Z,21.83
2019-06-10T17:35:02.296Z,21.74
2019-06-10T17:40:02.618Z,21.59
2019-06-10T17:45:02.534Z,21.44
2019-06-10T17:50:02.375Z,21.35
2019-06-10T17:55:03.359Z,21.22
2019-06-10T18:00:07.321Z,21.05
2019-06-10T18:05:03.223Z,20.9
2019-06-10T18:10:02.691Z,20.83
2019-06-10T18:15:03.539Z,20.74
2019-06-10T18:20:02.806Z,20.7
2019-06-10T18:25:03.063Z,20.61
2019-06-10T18:30:02.444Z,20.5
2019-06-10T18:35:02.908Z,20.39
2019-06-10T18:40:02.823Z,20.2
2019-06-10T18:45:02.697Z,20.05
2019-06-10T18:50:01.927Z,19.91
2019-06-10T18:55:03.336Z,19.91
2019-06-10T19:00:04.252Z,19.83
2019-06-10T19:05:02.820Z,19.59
2019-06-10T19:10:02.462Z,19.17
2019-06-10T19:15:02.796Z,18.87
2019-06-10T19:20:03.921Z,18.59
2019-06-10T19:25:03.637Z,18.35
2019-06-10T19:30:01.993Z,18.21
2019-06-10T19:35:02.831Z,18.07
2019-06-10T19:40:01.989Z,17.94
2019-06-10T19:45:03.041Z,17.83
2019-06-10T19:50:03.015Z,17.76
2019-06-10T19:55:02.654Z,17.68
2019-06-10T20:00:10.749Z,17.55
2019-06-10T20:05:02.314Z,17.46
2019-06-10T20:10:02.820Z,17.34
2019-06-10T20:15:02.245Z,17.26
2019-06-10T20:20:02.556Z,17.19
2019-06-10T20:25:03.795Z,17.03
2019-06-10T20:30:10.111Z,17
2019-06-10T20:35:02.980Z,16.84
2019-06-10T20:40:03.632Z,16.67
2019-06-10T20:45:04.579Z,16.6
2019-06-10T20:50:03.148Z,16.56
2019-06-10T20:55:03.013Z,16.44
2019-06-10T21:00:01.358Z,16.41
2019-06-10T21:05:02.790Z,16.33
2019-06-10T21:10:02.740Z,16.39
2019-06-10T21:15:02.338Z,16.36
2019-06-10T21:20:03.437Z,16.29
2019-06-10T21:25:02.341Z,16.19
2019-06-10T21:30:04.358Z,16.12
2019-06-10T21:35:03.083Z,16.03
2019-06-10T21:40:03.236Z,15.99
2019-06-10T21:45:03.438Z,15.92
2019-06-10T21:50:01.738Z,15.89
2019-06-10T21:55:02.984Z,15.86
2019-06-10T22:00:02.541Z,15.86
2019-06-10T22:05:03.301Z,15.82
2019-06-10T22:10:02.546Z,15.8
2019-06-10T22:15:01.816Z,15.8
2019-06-10T22:20:01.912Z,15.77
2019-06-10T22:25:02.940Z,15.8
2019-06-10T22:30:04.145Z,15.84
2019-06-10T22:35:03.051Z,15.87
2019-06-10T22:40:03.374Z,15.91
2019-06-10T22:45:03.986Z,15.92
2019-06-10T22:50:07.011Z,15.96
2019-06-10T22:55:03.537Z,16
2019-06-10T23:00:03.092Z,15.99
2019-06-10T23:05:04.992Z,15.96
2019-06-10T23:10:03.248Z,15.96
2019-06-10T23:15:05.024Z,16
2019-06-10T23:20:07.627Z,15.96
2019-06-10T23:25:07.852Z,15.96
2019-06-10T23:30:11.252Z,15.93
2019-06-10T23:35:07.882Z,15.93
2019-06-10T23:40:09.884Z,15.93
2019-06-10T23:45:05.166Z,15.92
2019-06-10T23:50:07.431Z,15.89
2019-06-10T23:55:10.291Z,15.84
